sensor_id;sensor_type;location;lat;lon;timestamp;temperature;humidity
13711;DHT22;6927;51.256;9.410;2022-07-06T00:02:22;15.60;1.00
13711;DHT22;6927;51.256;9.410;2022-07-06T00:04:47;15.50;99.90
13711;DHT22;6927;51.256;9.410;2022-07-06T00:07:13;15.50;1.00
13711;DHT22;6927;51.256;9.410;2022-07-06T00:09:40;15.40;1.00
13711;DHT22;6927;51.256;9.410;2022-07-06T00:12:06;15.40;99.90
13711;DHT22;6927;51.256;9.410;2022-07-06T00:14:32;15.30;1.00
13711;DHT22;6927;51.256;9.410;2022-07-06T00:16:57;15.30;1.00
13711;DHT22;6927;51.256;9.410;2022-07-06T00:19:23;15.20;99.90
13711;DHT22;6927;51.256;9.410;2022-07-06T00:21:48;15.20;1.00
13711;DHT22;6927;51.256;9.410;2022-07-06T00:24:14;15.10;99.90
13711;DHT22;6927;51.256;9.410;2022-07-06T00:26:39;15.00;1.00
13711;DHT22;6927;51.256;9.410;2022-07-06T00:29:05;15.00;61.10
13711;DHT22;6927;51.256;9.410;2022-07-06T00:31:30;14.90;1.00
13711;DHT22;6927;51.256;9.410;2022-07-06T00:33:56;14.90;63.40
13711;DHT22;6927;51.256;9.410;2022-07-06T00:36:21;14.80;1.00
13711;DHT22;6927;51.256;9.410;2022-07-06T00:38:47;14.80;1.00
13711;DHT22;6927;51.256;9.410;2022-07-06T00:41:13;14.70;1.00
13711;DHT22;6927;51.256;9.410;2022-07-06T00:43:56;14.60;99.90
13711;DHT22;6927;51.256;9.410;2022-07-06T00:46:31;14.50;99.90
13711;DHT22;6927;51.256;9.410;2022-07-06T00:48:57;14.50;99.90
13711;DHT22;6927;51.256;9.410;2022-07-06T00:51:29;14.40;99.90
13711;DHT22;6927;51.256;9.410;2022-07-06T00:54:00;14.40;99.90
13711;DHT22;6927;51.256;9.410;2022-07-06T00:56:29;14.30;99.90
13711;DHT22;6927;51.256;9.410;2022-07-06T00:58:56;14.20;99.90
13711;DHT22;6927;51.256;9.410;2022-07-06T01:01:21;14.20;99.90
13711;DHT22;6927;51.256;9.410;2022-07-06T01:03:47;14.10;99.90
13711;DHT22;6927;51.256;9.410;2022-07-06T01:06:12;14.00;99.90
13711;DHT22;6927;51.256;9.410;2022-07-06T01:08:38;14.00;99.90
13711;DHT22;6927;51.256;9.410;2022-07-06T01:11:03;13.90;99.90
13711;DHT22;6927;51.256;9.410;2022-07-06T01:13:31;13.80;99.90
13711;DHT22;6927;51.256;9.410;2022-07-06T01:15:58;13.70;99.90
13711;DHT22;6927;51.256;9.410;2022-07-06T01:18:23;13.70;99.90
13711;DHT22;6927;51.256;9.410;2022-07-06T01:20:49;13.60;99.90
13711;DHT22;6927;51.256;9.410;2022-07-06T01:23:15;13.60;99.90
13711;DHT22;6927;51.256;9.410;2022-07-06T01:25:40;13.50;99.90
13711;DHT22;6927;51.256;9.410;2022-07-06T01:28:06;13.50;99.90
13711;DHT22;6927;51.256;9.410;2022-07-06T01:30:31;13.40;99.90
13711;DHT22;6927;51.256;9.410;2022-07-06T01:32:57;13.40;99.90
13711;DHT22;6927;51.256;9.410;2022-07-06T01:35:24;13.40;99.90
13711;DHT22;6927;51.256;9.410;2022-07-06T01:37:51;13.30;99.90
13711;DHT22;6927;51.256;9.410;2022-07-06T01:40:17;13.30;99.90
13711;DHT22;6927;51.256;9.410;2022-07-06T01:42:42;13.20;99.90
13711;DHT22;6927;51.256;9.410;2022-07-06T01:45:08;13.20;99.90
13711;DHT22;6927;51.256;9.410;2022-07-06T01:47:34;13.10;99.90
13711;DHT22;6927;51.256;9.410;2022-07-06T01:50:02;13.10;99.90
13711;DHT22;6927;51.256;9.410;2022-07-06T01:52:29;13.10;99.90
13711;DHT22;6927;51.256;9.410;2022-07-06T01:54:56;13.10;99.90
13711;DHT22;6927;51.256;9.410;2022-07-06T01:57:21;13.00;99.90
13711;DHT22;6927;51.256;9.410;2022-07-06T01:59:47;13.10;99.90
13711;DHT22;6927;51.256;9.410;2022-07-06T02:02:13;13.10;99.90
13711;DHT22;6927;51.256;9.410;2022-07-06T02:04:39;13.10;99.90
13711;DHT22;6927;51.256;9.410;2022-07-06T02:07:04;13.10;99.90
13711;DHT22;6927;51.256;9.410;2022-07-06T02:09:30;13.20;99.90
13711;DHT22;6927;51.256;9.410;2022-07-06T02:11:55;13.20;99.90
13711;DHT22;6927;51.256;9.410;2022-07-06T02:14:21;13.20;99.90
13711;DHT22;6927;51.256;9.410;2022-07-06T02:16:46;13.20;99.90
13711;DHT22;6927;51.256;9.410;2022-07-06T02:19:12;13.20;99.90
13711;DHT22;6927;51.256;9.410;2022-07-06T02:21:37;13.20;99.90
13711;DHT22;6927;51.256;9.410;2022-07-06T02:24:03;13.20;99.90
13711;DHT22;6927;51.256;9.410;2022-07-06T02:26:28;13.30;99.90
13711;DHT22;6927;51.256;9.410;2022-07-06T02:28:54;13.30;99.90
13711;DHT22;6927;51.256;9.410;2022-07-06T02:31:19;13.40;99.90
13711;DHT22;6927;51.256;9.410;2022-07-06T02:33:45;13.40;99.90
13711;DHT22;6927;51.256;9.410;2022-07-06T02:36:11;13.40;99.90
13711;DHT22;6927;51.256;9.410;2022-07-06T02:38:36;13.50;99.90
13711;DHT22;6927;51.256;9.410;2022-07-06T02:41:02;13.60;99.90
13711;DHT22;6927;51.256;9.410;2022-07-06T02:43:27;13.70;99.90
13711;DHT22;6927;51.256;9.410;2022-07-06T02:45:53;13.70;99.90
13711;DHT22;6927;51.256;9.410;2022-07-06T02:48:18;13.80;99.90
13711;DHT22;6927;51.256;9.410;2022-07-06T02:50:46;13.80;99.90
13711;DHT22;6927;51.256;9.410;2022-07-06T02:53:12;13.90;99.90
13711;DHT22;6927;51.256;9.410;2022-07-06T02:55:37;13.90;99.90
13711;DHT22;6927;51.256;9.410;2022-07-06T02:58:03;13.90;99.90
13711;DHT22;6927;51.256;9.410;2022-07-06T03:00:29;14.00;99.90
13711;DHT22;6927;51.256;9.410;2022-07-06T03:02:54;14.00;99.90
13711;DHT22;6927;51.256;9.410;2022-07-06T03:05:20;14.00;99.90
13711;DHT22;6927;51.256;9.410;2022-07-06T03:07:45;14.00;99.90
13711;DHT22;6927;51.256;9.410;2022-07-06T03:10:11;14.00;99.90
13711;DHT22;6927;51.256;9.410;2022-07-06T03:12:36;14.00;99.90
13711;DHT22;6927;51.256;9.410;2022-07-06T03:15:02;14.00;99.90
13711;DHT22;6927;51.256;9.410;2022-07-06T03:17:27;14.10;99.90
13711;DHT22;6927;51.256;9.410;2022-07-06T03:19:53;14.10;99.90
13711;DHT22;6927;51.256;9.410;2022-07-06T03:22:18;14.20;99.90
13711;DHT22;6927;51.256;9.410;2022-07-06T03:24:44;14.10;99.90
13711;DHT22;6927;51.256;9.410;2022-07-06T03:27:10;14.10;99.90
13711;DHT22;6927;51.256;9.410;2022-07-06T03:29:35;14.00;99.90
13711;DHT22;6927;51.256;9.410;2022-07-06T03:32:01;14.00;99.90
13711;DHT22;6927;51.256;9.410;2022-07-06T03:34:26;14.00;99.90
13711;DHT22;6927;51.256;9.410;2022-07-06T03:36:52;13.90;99.90
13711;DHT22;6927;51.256;9.410;2022-07-06T03:39:17;13.90;99.90
13711;DHT22;6927;51.256;9.410;2022-07-06T03:41:43;13.90;99.90
13711;DHT22;6927;51.256;9.410;2022-07-06T03:44:08;14.00;99.90
13711;DHT22;6927;51.256;9.410;2022-07-06T03:46:34;14.00;99.90
13711;DHT22;6927;51.256;9.410;2022-07-06T03:48:59;14.00;99.90
13711;DHT22;6927;51.256;9.410;2022-07-06T03:51:25;14.10;99.90
13711;DHT22;6927;51.256;9.410;2022-07-06T03:53:50;14.10;99.90
13711;DHT22;6927;51.256;9.410;2022-07-06T03:56:16;14.20;99.90
13711;DHT22;6927;51.256;9.410;2022-07-06T03:58:58;14.20;99.90
13711;DHT22;6927;51.256;9.410;2022-07-06T04:01:23;14.30;99.90
13711;DHT22;6927;51.256;9.410;2022-07-06T04:03:49;14.30;99.90
13711;DHT22;6927;51.256;9.410;2022-07-06T04:06:15;14.30;99.90
13711;DHT22;6927;51.256;9.410;2022-07-06T04:08:40;14.30;99.90
13711;DHT22;6927;51.256;9.410;2022-07-06T04:11:06;14.30;99.90
13711;DHT22;6927;51.256;9.410;2022-07-06T04:13:32;14.20;99.90
13711;DHT22;6927;51.256;9.410;2022-07-06T04:15:57;14.20;99.90
13711;DHT22;6927;51.256;9.410;2022-07-06T04:18:24;14.20;99.90
13711;DHT22;6927;51.256;9.410;2022-07-06T04:20:49;14.20;99.90
13711;DHT22;6927;51.256;9.410;2022-07-06T04:23:15;14.20;99.90
13711;DHT22;6927;51.256;9.410;2022-07-06T04:25:41;14.20;99.90
13711;DHT22;6927;51.256;9.410;2022-07-06T04:28:06;14.20;99.90
13711;DHT22;6927;51.256;9.410;2022-07-06T04:30:32;14.10;99.90
13711;DHT22;6927;51.256;9.410;2022-07-06T04:32:58;14.10;99.90
13711;DHT22;6927;51.256;9.410;2022-07-06T04:35:23;14.10;99.90
13711;DHT22;6927;51.256;9.410;2022-07-06T04:37:49;14.20;99.90
13711;DHT22;6927;51.256;9.410;2022-07-06T04:40:15;14.20;99.90
13711;DHT22;6927;51.256;9.410;2022-07-06T04:42:40;14.30;99.90
13711;DHT22;6927;51.256;9.410;2022-07-06T04:45:07;14.40;99.90
13711;DHT22;6927;51.256;9.410;2022-07-06T04:47:32;14.40;99.90
13711;DHT22;6927;51.256;9.410;2022-07-06T04:49:58;14.50;99.90
13711;DHT22;6927;51.256;9.410;2022-07-06T04:52:24;14.60;99.90
13711;DHT22;6927;51.256;9.410;2022-07-06T04:54:49;14.60;99.90
13711;DHT22;6927;51.256;9.410;2022-07-06T04:57:15;14.70;99.90
13711;DHT22;6927;51.256;9.410;2022-07-06T04:59:40;14.70;99.90
13711;DHT22;6927;51.256;9.410;2022-07-06T05:02:06;14.70;99.90
13711;DHT22;6927;51.256;9.410;2022-07-06T05:04:32;14.70;99.90
13711;DHT22;6927;51.256;9.410;2022-07-06T05:06:58;14.70;99.90
13711;DHT22;6927;51.256;9.410;2022-07-06T05:09:24;14.70;99.90
13711;DHT22;6927;51.256;9.410;2022-07-06T05:11:50;14.70;99.90
13711;DHT22;6927;51.256;9.410;2022-07-06T05:14:15;14.80;99.90
13711;DHT22;6927;51.256;9.410;2022-07-06T05:16:41;14.80;99.90
13711;DHT22;6927;51.256;9.410;2022-07-06T05:19:06;14.90;99.90
13711;DHT22;6927;51.256;9.410;2022-07-06T05:21:32;15.00;99.90
13711;DHT22;6927;51.256;9.410;2022-07-06T05:23:57;15.00;99.90
13711;DHT22;6927;51.256;9.410;2022-07-06T05:26:23;15.00;99.90
13711;DHT22;6927;51.256;9.410;2022-07-06T05:28:48;15.00;99.90
13711;DHT22;6927;51.256;9.410;2022-07-06T05:31:14;15.00;99.90
13711;DHT22;6927;51.256;9.410;2022-07-06T05:33:39;15.00;99.90
13711;DHT22;6927;51.256;9.410;2022-07-06T05:36:05;15.10;99.90
13711;DHT22;6927;51.256;9.410;2022-07-06T05:38:31;15.10;99.90
13711;DHT22;6927;51.256;9.410;2022-07-06T05:40:56;15.20;99.90
13711;DHT22;6927;51.256;9.410;2022-07-06T05:43:22;15.20;99.90
13711;DHT22;6927;51.256;9.410;2022-07-06T05:45:47;15.20;99.90
13711;DHT22;6927;51.256;9.410;2022-07-06T05:48:13;15.30;99.90
13711;DHT22;6927;51.256;9.410;2022-07-06T05:50:57;15.30;99.90
13711;DHT22;6927;51.256;9.410;2022-07-06T05:53:22;15.40;99.90
13711;DHT22;6927;51.256;9.410;2022-07-06T05:55:48;15.50;99.90
13711;DHT22;6927;51.256;9.410;2022-07-06T05:58:13;15.50;99.90
13711;DHT22;6927;51.256;9.410;2022-07-06T06:00:39;15.50;99.90
13711;DHT22;6927;51.256;9.410;2022-07-06T06:03:05;15.50;99.90
13711;DHT22;6927;51.256;9.410;2022-07-06T06:05:30;15.50;99.90
13711;DHT22;6927;51.256;9.410;2022-07-06T06:07:56;15.60;99.90
13711;DHT22;6927;51.256;9.410;2022-07-06T06:10:22;15.80;99.90
13711;DHT22;6927;51.256;9.410;2022-07-06T06:12:48;15.90;99.90
13711;DHT22;6927;51.256;9.410;2022-07-06T06:15:13;15.90;99.90
13711;DHT22;6927;51.256;9.410;2022-07-06T06:17:39;16.10;99.90
13711;DHT22;6927;51.256;9.410;2022-07-06T06:20:08;16.20;99.90
13711;DHT22;6927;51.256;9.410;2022-07-06T06:22:47;16.10;99.90
13711;DHT22;6927;51.256;9.410;2022-07-06T06:25:17;16.10;99.90
13711;DHT22;6927;51.256;9.410;2022-07-06T06:27:43;16.20;99.90
13711;DHT22;6927;51.256;9.410;2022-07-06T06:30:10;16.30;99.90
13711;DHT22;6927;51.256;9.410;2022-07-06T06:32:36;16.40;99.90
13711;DHT22;6927;51.256;9.410;2022-07-06T06:35:02;16.40;99.90
13711;DHT22;6927;51.256;9.410;2022-07-06T06:37:28;16.40;99.90
13711;DHT22;6927;51.256;9.410;2022-07-06T06:39:54;16.60;99.90
13711;DHT22;6927;51.256;9.410;2022-07-06T06:42:19;16.80;99.90
13711;DHT22;6927;51.256;9.410;2022-07-06T06:44:45;16.80;99.90
13711;DHT22;6927;51.256;9.410;2022-07-06T06:47:10;16.80;99.90
13711;DHT22;6927;51.256;9.410;2022-07-06T06:49:36;16.80;99.90
13711;DHT22;6927;51.256;9.410;2022-07-06T06:52:01;16.70;99.90
13711;DHT22;6927;51.256;9.410;2022-07-06T06:54:27;16.80;99.90
13711;DHT22;6927;51.256;9.410;2022-07-06T06:56:52;16.80;99.90
13711;DHT22;6927;51.256;9.410;2022-07-06T06:59:18;17.00;99.90
13711;DHT22;6927;51.256;9.410;2022-07-06T07:01:43;17.40;99.90
13711;DHT22;6927;51.256;9.410;2022-07-06T07:04:09;18.20;99.90
13711;DHT22;6927;51.256;9.410;2022-07-06T07:06:35;19.30;99.90
13711;DHT22;6927;51.256;9.410;2022-07-06T07:09:00;20.60;99.90
13711;DHT22;6927;51.256;9.410;2022-07-06T07:11:26;21.10;99.90
13711;DHT22;6927;51.256;9.410;2022-07-06T07:13:51;21.20;99.90
13711;DHT22;6927;51.256;9.410;2022-07-06T07:16:17;21.10;99.90
13711;DHT22;6927;51.256;9.410;2022-07-06T07:18:42;20.80;99.90
13711;DHT22;6927;51.256;9.410;2022-07-06T07:21:08;20.40;99.90
13711;DHT22;6927;51.256;9.410;2022-07-06T07:23:33;19.80;99.90
13711;DHT22;6927;51.256;9.410;2022-07-06T07:25:59;19.30;99.90
13711;DHT22;6927;51.256;9.410;2022-07-06T07:28:24;18.70;99.90
13711;DHT22;6927;51.256;9.410;2022-07-06T07:30:50;18.50;99.90
13711;DHT22;6927;51.256;9.410;2022-07-06T07:33:16;18.50;99.90
13711;DHT22;6927;51.256;9.410;2022-07-06T07:35:41;18.50;99.90
13711;DHT22;6927;51.256;9.410;2022-07-06T07:38:07;19.30;99.90
13711;DHT22;6927;51.256;9.410;2022-07-06T07:40:32;20.30;99.90
13711;DHT22;6927;51.256;9.410;2022-07-06T07:42:59;21.20;99.90
13711;DHT22;6927;51.256;9.410;2022-07-06T07:45:24;22.30;99.90
13711;DHT22;6927;51.256;9.410;2022-07-06T07:47:50;22.90;99.90
13711;DHT22;6927;51.256;9.410;2022-07-06T07:50:15;22.90;99.90
13711;DHT22;6927;51.256;9.410;2022-07-06T07:52:41;22.30;99.90
13711;DHT22;6927;51.256;9.410;2022-07-06T07:55:07;21.30;99.90
13711;DHT22;6927;51.256;9.410;2022-07-06T07:57:33;20.40;99.90
13711;DHT22;6927;51.256;9.410;2022-07-06T07:59:58;19.90;99.90
13711;DHT22;6927;51.256;9.410;2022-07-06T08:02:24;19.80;99.90
13711;DHT22;6927;51.256;9.410;2022-07-06T08:04:49;19.90;99.90
13711;DHT22;6927;51.256;9.410;2022-07-06T08:07:15;20.00;99.90
13711;DHT22;6927;51.256;9.410;2022-07-06T08:09:40;19.80;99.90
13711;DHT22;6927;51.256;9.410;2022-07-06T08:12:06;20.30;99.90
13711;DHT22;6927;51.256;9.410;2022-07-06T08:14:32;21.30;99.90
13711;DHT22;6927;51.256;9.410;2022-07-06T08:16:57;22.30;99.90
13711;DHT22;6927;51.256;9.410;2022-07-06T08:19:23;22.50;99.90
13711;DHT22;6927;51.256;9.410;2022-07-06T08:21:48;23.30;99.90
13711;DHT22;6927;51.256;9.410;2022-07-06T08:24:14;24.50;99.90
13711;DHT22;6927;51.256;9.410;2022-07-06T08:26:39;25.50;99.90
13711;DHT22;6927;51.256;9.410;2022-07-06T08:29:05;26.80;99.90
13711;DHT22;6927;51.256;9.410;2022-07-06T08:31:31;27.10;99.90
13711;DHT22;6927;51.256;9.410;2022-07-06T08:33:56;26.90;99.90
13711;DHT22;6927;51.256;9.410;2022-07-06T08:36:22;26.30;99.90
13711;DHT22;6927;51.256;9.410;2022-07-06T08:38:49;26.40;99.90
13711;DHT22;6927;51.256;9.410;2022-07-06T08:41:15;26.30;99.90
13711;DHT22;6927;51.256;9.410;2022-07-06T08:43:41;25.30;99.90
13711;DHT22;6927;51.256;9.410;2022-07-06T08:46:07;24.10;99.90
13711;DHT22;6927;51.256;9.410;2022-07-06T08:48:37;22.80;99.90
13711;DHT22;6927;51.256;9.410;2022-07-06T08:51:04;21.90;99.90
13711;DHT22;6927;51.256;9.410;2022-07-06T08:53:30;21.30;99.90
13711;DHT22;6927;51.256;9.410;2022-07-06T08:55:56;21.00;99.90
13711;DHT22;6927;51.256;9.410;2022-07-06T08:58:26;20.70;99.90
13711;DHT22;6927;51.256;9.410;2022-07-06T09:00:54;20.20;99.90
13711;DHT22;6927;51.256;9.410;2022-07-06T09:03:20;19.60;99.90
13711;DHT22;6927;51.256;9.410;2022-07-06T09:05:46;19.30;99.90
13711;DHT22;6927;51.256;9.410;2022-07-06T09:08:13;19.30;99.90
13711;DHT22;6927;51.256;9.410;2022-07-06T09:10:38;19.40;99.90
13711;DHT22;6927;51.256;9.410;2022-07-06T09:13:05;19.50;99.90
13711;DHT22;6927;51.256;9.410;2022-07-06T09:15:32;19.60;99.90
13711;DHT22;6927;51.256;9.410;2022-07-06T09:17:58;20.60;99.90
13711;DHT22;6927;51.256;9.410;2022-07-06T09:20:24;21.80;99.90
13711;DHT22;6927;51.256;9.410;2022-07-06T09:22:50;23.10;99.90
13711;DHT22;6927;51.256;9.410;2022-07-06T09:25:16;23.00;99.90
13711;DHT22;6927;51.256;9.410;2022-07-06T09:27:47;22.50;99.90
13711;DHT22;6927;51.256;9.410;2022-07-06T09:30:16;21.90;99.90
13711;DHT22;6927;51.256;9.410;2022-07-06T09:32:48;22.40;99.90
13711;DHT22;6927;51.256;9.410;2022-07-06T09:35:36;23.50;99.90
13711;DHT22;6927;51.256;9.410;2022-07-06T09:38:07;24.70;99.90
13711;DHT22;6927;51.256;9.410;2022-07-06T09:40:35;25.10;99.90
13711;DHT22;6927;51.256;9.410;2022-07-06T09:45:42;23.90;99.90
13711;DHT22;6927;51.256;9.410;2022-07-06T09:48:19;23.30;99.90
13711;DHT22;6927;51.256;9.410;2022-07-06T09:50:51;22.20;99.90
13711;DHT22;6927;51.256;9.410;2022-07-06T09:53:18;21.50;99.90
13711;DHT22;6927;51.256;9.410;2022-07-06T09:55:46;21.00;99.90
13711;DHT22;6927;51.256;9.410;2022-07-06T09:58:13;20.60;99.90
13711;DHT22;6927;51.256;9.410;2022-07-06T10:00:40;20.50;99.90
13711;DHT22;6927;51.256;9.410;2022-07-06T10:03:06;20.40;99.90
13711;DHT22;6927;51.256;9.410;2022-07-06T10:05:32;20.20;99.90
13711;DHT22;6927;51.256;9.410;2022-07-06T10:08:00;20.00;99.90
13711;DHT22;6927;51.256;9.410;2022-07-06T10:10:27;19.90;99.90
13711;DHT22;6927;51.256;9.410;2022-07-06T10:12:55;19.80;99.90
13711;DHT22;6927;51.256;9.410;2022-07-06T10:15:26;19.90;99.90
13711;DHT22;6927;51.256;9.410;2022-07-06T10:17:52;20.90;99.90
13711;DHT22;6927;51.256;9.410;2022-07-06T10:20:19;22.50;99.90
13711;DHT22;6927;51.256;9.410;2022-07-06T10:22:46;24.20;99.90
13711;DHT22;6927;51.256;9.410;2022-07-06T10:25:13;24.90;99.90
13711;DHT22;6927;51.256;9.410;2022-07-06T10:27:41;23.90;99.90
13711;DHT22;6927;51.256;9.410;2022-07-06T10:30:08;22.10;99.90
13711;DHT22;6927;51.256;9.410;2022-07-06T10:32:35;21.10;99.90
13711;DHT22;6927;51.256;9.410;2022-07-06T10:35:02;20.90;99.90
13711;DHT22;6927;51.256;9.410;2022-07-06T10:37:28;21.20;99.90
13711;DHT22;6927;51.256;9.410;2022-07-06T10:39:54;21.30;99.90
13711;DHT22;6927;51.256;9.410;2022-07-06T10:42:43;21.50;99.90
13711;DHT22;6927;51.256;9.410;2022-07-06T10:45:20;21.90;99.90
13711;DHT22;6927;51.256;9.410;2022-07-06T10:50:41;23.00;99.90
13711;DHT22;6927;51.256;9.410;2022-07-06T10:53:13;24.10;99.90
13711;DHT22;6927;51.256;9.410;2022-07-06T10:55:42;24.10;99.90
13711;DHT22;6927;51.256;9.410;2022-07-06T10:58:08;23.30;99.90
13711;DHT22;6927;51.256;9.410;2022-07-06T11:00:51;22.80;99.90
13711;DHT22;6927;51.256;9.410;2022-07-06T11:03:39;21.90;99.90
13711;DHT22;6927;51.256;9.410;2022-07-06T11:08:58;21.40;99.90
13711;DHT22;6927;51.256;9.410;2022-07-06T11:13:56;21.60;99.90
13711;DHT22;6927;51.256;9.410;2022-07-06T11:16:25;21.50;99.90
13711;DHT22;6927;51.256;9.410;2022-07-06T11:19:12;21.60;99.90
13711;DHT22;6927;51.256;9.410;2022-07-06T11:21:47;22.90;99.90
13711;DHT22;6927;51.256;9.410;2022-07-06T11:24:21;24.10;99.90
13711;DHT22;6927;51.256;9.410;2022-07-06T11:26:50;25.20;99.90
13711;DHT22;6927;51.256;9.410;2022-07-06T11:29:18;25.60;99.90
13711;DHT22;6927;51.256;9.410;2022-07-06T11:31:46;26.10;99.90
13711;DHT22;6927;51.256;9.410;2022-07-06T11:34:17;25.70;99.90
13711;DHT22;6927;51.256;9.410;2022-07-06T11:36:43;24.50;99.90
13711;DHT22;6927;51.256;9.410;2022-07-06T11:39:08;23.90;99.90
13711;DHT22;6927;51.256;9.410;2022-07-06T11:41:34;23.50;99.90
13711;DHT22;6927;51.256;9.410;2022-07-06T11:44:00;23.10;99.90
13711;DHT22;6927;51.256;9.410;2022-07-06T11:46:28;22.60;99.90
13711;DHT22;6927;51.256;9.410;2022-07-06T11:48:56;22.10;99.90
13711;DHT22;6927;51.256;9.410;2022-07-06T11:51:24;21.80;99.90
13711;DHT22;6927;51.256;9.410;2022-07-06T11:53:52;21.50;99.90
13711;DHT22;6927;51.256;9.410;2022-07-06T11:56:18;21.40;99.90
13711;DHT22;6927;51.256;9.410;2022-07-06T11:58:48;21.30;99.90
13711;DHT22;6927;51.256;9.410;2022-07-06T12:01:14;21.20;99.90
13711;DHT22;6927;51.256;9.410;2022-07-06T12:03:41;20.80;99.90
13711;DHT22;6927;51.256;9.410;2022-07-06T12:06:13;20.60;99.90
13711;DHT22;6927;51.256;9.410;2022-07-06T12:08:47;20.60;99.90
13711;DHT22;6927;51.256;9.410;2022-07-06T12:11:28;20.70;99.90
13711;DHT22;6927;51.256;9.410;2022-07-06T12:13:56;20.60;99.90
13711;DHT22;6927;51.256;9.410;2022-07-06T12:16:29;20.40;99.90
13711;DHT22;6927;51.256;9.410;2022-07-06T12:18:55;20.40;99.90
13711;DHT22;6927;51.256;9.410;2022-07-06T12:21:25;20.60;99.90
13711;DHT22;6927;51.256;9.410;2022-07-06T12:23:53;20.70;99.90
13711;DHT22;6927;51.256;9.410;2022-07-06T12:26:26;20.70;99.90
13711;DHT22;6927;51.256;9.410;2022-07-06T12:29:04;20.80;99.90
13711;DHT22;6927;51.256;9.410;2022-07-06T12:31:36;20.40;99.90
13711;DHT22;6927;51.256;9.410;2022-07-06T12:34:04;20.00;99.90
13711;DHT22;6927;51.256;9.410;2022-07-06T12:36:30;19.90;99.90
13711;DHT22;6927;51.256;9.410;2022-07-06T12:38:56;19.80;99.90
13711;DHT22;6927;51.256;9.410;2022-07-06T12:41:30;19.60;99.90
13711;DHT22;6927;51.256;9.410;2022-07-06T12:44:08;19.60;99.90
13711;DHT22;6927;51.256;9.410;2022-07-06T12:46:37;19.60;99.90
13711;DHT22;6927;51.256;9.410;2022-07-06T12:49:17;19.40;99.90
13711;DHT22;6927;51.256;9.410;2022-07-06T12:54:15;19.80;99.90
13711;DHT22;6927;51.256;9.410;2022-07-06T12:57:00;20.10;99.90
13711;DHT22;6927;51.256;9.410;2022-07-06T12:59:28;20.30;99.90
13711;DHT22;6927;51.256;9.410;2022-07-06T13:01:54;20.30;99.90
13711;DHT22;6927;51.256;9.410;2022-07-06T13:04:27;20.40;99.90
13711;DHT22;6927;51.256;9.410;2022-07-06T13:06:53;20.40;99.90
13711;DHT22;6927;51.256;9.410;2022-07-06T13:09:19;20.40;99.90
13711;DHT22;6927;51.256;9.410;2022-07-06T13:11:46;20.40;99.90
13711;DHT22;6927;51.256;9.410;2022-07-06T13:14:13;20.40;99.90
13711;DHT22;6927;51.256;9.410;2022-07-06T13:16:39;20.40;99.90
13711;DHT22;6927;51.256;9.410;2022-07-06T13:19:05;20.30;99.90
13711;DHT22;6927;51.256;9.410;2022-07-06T13:21:31;20.30;99.90
13711;DHT22;6927;51.256;9.410;2022-07-06T13:23:56;20.30;99.90
13711;DHT22;6927;51.256;9.410;2022-07-06T13:26:22;20.40;99.90
13711;DHT22;6927;51.256;9.410;2022-07-06T13:28:47;20.50;99.90
13711;DHT22;6927;51.256;9.410;2022-07-06T13:31:13;20.50;99.90
13711;DHT22;6927;51.256;9.410;2022-07-06T13:33:39;20.60;99.90
13711;DHT22;6927;51.256;9.410;2022-07-06T13:36:05;20.80;99.90
13711;DHT22;6927;51.256;9.410;2022-07-06T13:38:30;20.70;99.90
13711;DHT22;6927;51.256;9.410;2022-07-06T13:40:56;20.80;99.90
13711;DHT22;6927;51.256;9.410;2022-07-06T13:43:21;20.80;99.90
13711;DHT22;6927;51.256;9.410;2022-07-06T13:45:47;20.70;99.90
13711;DHT22;6927;51.256;9.410;2022-07-06T13:48:13;20.60;99.90
13711;DHT22;6927;51.256;9.410;2022-07-06T13:50:39;20.50;99.90
13711;DHT22;6927;51.256;9.410;2022-07-06T13:53:05;20.50;99.90
13711;DHT22;6927;51.256;9.410;2022-07-06T13:55:31;20.40;99.90
13711;DHT22;6927;51.256;9.410;2022-07-06T13:57:56;20.30;99.90
13711;DHT22;6927;51.256;9.410;2022-07-06T14:00:22;20.30;99.90
13711;DHT22;6927;51.256;9.410;2022-07-06T14:02:48;20.30;99.90
13711;DHT22;6927;51.256;9.410;2022-07-06T14:05:13;20.40;99.90
13711;DHT22;6927;51.256;9.410;2022-07-06T14:07:39;20.40;99.90
13711;DHT22;6927;51.256;9.410;2022-07-06T14:10:05;20.50;99.90
13711;DHT22;6927;51.256;9.410;2022-07-06T14:12:31;20.60;99.90
13711;DHT22;6927;51.256;9.410;2022-07-06T14:14:56;20.80;99.90
13711;DHT22;6927;51.256;9.410;2022-07-06T14:17:22;20.80;99.90
13711;DHT22;6927;51.256;9.410;2022-07-06T14:19:49;20.90;99.90
13711;DHT22;6927;51.256;9.410;2022-07-06T14:22:15;20.90;99.90
13711;DHT22;6927;51.256;9.410;2022-07-06T14:24:40;20.80;99.90
13711;DHT22;6927;51.256;9.410;2022-07-06T14:27:06;20.80;99.90
13711;DHT22;6927;51.256;9.410;2022-07-06T14:29:32;20.80;99.90
13711;DHT22;6927;51.256;9.410;2022-07-06T14:31:57;20.70;99.90
13711;DHT22;6927;51.256;9.410;2022-07-06T14:34:23;20.70;99.90
13711;DHT22;6927;51.256;9.410;2022-07-06T14:36:49;20.60;99.90
13711;DHT22;6927;51.256;9.410;2022-07-06T14:39:15;20.80;99.90
13711;DHT22;6927;51.256;9.410;2022-07-06T14:41:40;21.10;99.90
13711;DHT22;6927;51.256;9.410;2022-07-06T14:44:06;21.40;99.90
13711;DHT22;6927;51.256;9.410;2022-07-06T14:46:32;21.50;99.90
13711;DHT22;6927;51.256;9.410;2022-07-06T14:48:59;21.40;99.90
13711;DHT22;6927;51.256;9.410;2022-07-06T14:51:25;21.20;99.90
13711;DHT22;6927;51.256;9.410;2022-07-06T14:53:51;21.10;99.90
13711;DHT22;6927;51.256;9.410;2022-07-06T14:56:17;21.10;99.90
13711;DHT22;6927;51.256;9.410;2022-07-06T14:58:42;21.40;99.90
13711;DHT22;6927;51.256;9.410;2022-07-06T15:01:08;21.40;99.90
13711;DHT22;6927;51.256;9.410;2022-07-06T15:03:33;21.30;99.90
13711;DHT22;6927;51.256;9.410;2022-07-06T15:05:59;21.00;99.90
13711;DHT22;6927;51.256;9.410;2022-07-06T15:08:25;20.90;99.90
13711;DHT22;6927;51.256;9.410;2022-07-06T15:10:50;20.80;99.90
13711;DHT22;6927;51.256;9.410;2022-07-06T15:13:16;20.60;99.90
13711;DHT22;6927;51.256;9.410;2022-07-06T15:15:41;20.60;99.90
13711;DHT22;6927;51.256;9.410;2022-07-06T15:18:07;20.40;99.90
13711;DHT22;6927;51.256;9.410;2022-07-06T15:20:33;20.30;99.90
13711;DHT22;6927;51.256;9.410;2022-07-06T15:22:58;20.30;99.90
13711;DHT22;6927;51.256;9.410;2022-07-06T15:25:24;20.30;99.90
13711;DHT22;6927;51.256;9.410;2022-07-06T15:27:51;20.20;99.90
13711;DHT22;6927;51.256;9.410;2022-07-06T15:30:16;20.20;99.90
13711;DHT22;6927;51.256;9.410;2022-07-06T15:32:42;20.40;99.90
13711;DHT22;6927;51.256;9.410;2022-07-06T15:35:07;20.70;99.90
13711;DHT22;6927;51.256;9.410;2022-07-06T15:37:33;20.80;99.90
13711;DHT22;6927;51.256;9.410;2022-07-06T15:40:00;20.70;99.90
13711;DHT22;6927;51.256;9.410;2022-07-06T15:42:25;20.70;99.90
13711;DHT22;6927;51.256;9.410;2022-07-06T15:44:51;20.80;99.90
13711;DHT22;6927;51.256;9.410;2022-07-06T15:47:18;20.80;99.90
13711;DHT22;6927;51.256;9.410;2022-07-06T15:49:44;21.10;99.90
13711;DHT22;6927;51.256;9.410;2022-07-06T15:52:10;21.20;99.90
13711;DHT22;6927;51.256;9.410;2022-07-06T15:54:36;21.10;99.90
13711;DHT22;6927;51.256;9.410;2022-07-06T15:57:02;21.10;99.90
13711;DHT22;6927;51.256;9.410;2022-07-06T15:59:27;21.00;99.90